»·PEaware :: N27JP KFUL-KGCN

N27JP :: KFUL-KGCN

FLIGHT INFORMATION

Flight Status: Arrived
Operator: Privately registered:
United States
More flights under this callsign
Pilot: Weston J. (31543)
Aircraft: CESSNA 208 CARAVAN
(C208)
More flights by this aircraft type
Origin: KFUL Fullerton Mun
United States
Destination: KGCN Grand Canyon Natl Park
United States
More flights between these airports :: More routes between these airports
Route: POWUP V394 POM V197 PMD V12 HEC V8 GFS V210 PGS V208 GCN
File this flight plan on PilotEdge
Remarks:
Altitude:
(Current/Filed)
15,500ft
Speed:
(Current/Filed)
200kts
Departed: 31-Oct-20 11:26 AM
Arrived: 31-Oct-20 01:38 PM
Distance/Time
Traveled:
313nm/2:12
Distance/Time
To Go:
Arrived

Flight Plot

Page will automatically refresh every two minutes.

Flight plan parsing failed; only flown route is shown


Map Options




Map Legend


Flown Route
Filed Route
Departure Airport
Arrival Airport
Navaid (VOR, NDB)
Fix

Horizontal Profiles

Position Reports

Time Latitude Longitude Heading Altitude Ground
Speed
31-Oct-20 10:23 33.872450 -117.982717 358 91ft 0kts
31-Oct-20 10:24 33.872450 -117.982717 358 91ft 0kts
31-Oct-20 10:25 33.872450 -117.982717 358 91ft 0kts
31-Oct-20 10:26 33.872450 -117.982717 358 91ft 0kts
31-Oct-20 10:27 33.872450 -117.982717 358 91ft 0kts
31-Oct-20 10:28 33.872450 -117.982717 358 91ft 0kts
31-Oct-20 10:29 33.872450 -117.982717 358 91ft 0kts
31-Oct-20 10:30 33.872450 -117.982717 358 91ft 0kts
31-Oct-20 10:31 33.872450 -117.982717 358 91ft 0kts
31-Oct-20 10:32 33.872450 -117.982717 358 91ft 0kts
31-Oct-20 10:33 33.872450 -117.982717 358 91ft 0kts
31-Oct-20 10:34 33.872450 -117.982717 358 91ft 0kts
31-Oct-20 10:35 33.872450 -117.982717 358 91ft 0kts
31-Oct-20 10:36 33.872450 -117.982717 358 91ft 0kts
31-Oct-20 10:37 33.872450 -117.982717 358 91ft 0kts
31-Oct-20 10:38 33.872450 -117.982717 358 91ft 0kts
31-Oct-20 10:39 33.872450 -117.982717 358 91ft 0kts
31-Oct-20 10:40 33.872450 -117.982717 358 91ft 0kts
31-Oct-20 10:41 33.872450 -117.982717 358 91ft 0kts
31-Oct-20 10:42 33.872450 -117.982717 358 91ft 0kts
31-Oct-20 10:43 33.872450 -117.982717 358 91ft 0kts
31-Oct-20 10:44 33.872450 -117.982717 358 91ft 0kts
31-Oct-20 10:45 33.872450 -117.982717 358 91ft 0kts
31-Oct-20 10:46 33.872450 -117.982717 358 91ft 0kts
31-Oct-20 10:47 33.872450 -117.982717 358 91ft 0kts
31-Oct-20 10:48 33.872450 -117.982717 358 91ft 0kts
31-Oct-20 10:49 33.872450 -117.982717 358 91ft 0kts
31-Oct-20 10:50 33.872450 -117.982717 358 91ft 0kts
31-Oct-20 10:51 33.872450 -117.982717 358 91ft 0kts
31-Oct-20 10:52 33.872450 -117.982717 358 91ft 0kts
31-Oct-20 10:53 33.872450 -117.982717 358 91ft 0kts
31-Oct-20 10:54 33.872450 -117.982717 358 91ft 0kts
31-Oct-20 10:55 33.872450 -117.982717 358 91ft 0kts
31-Oct-20 10:56 33.872450 -117.982717 358 91ft 0kts
31-Oct-20 10:57 33.872450 -117.982717 358 91ft 0kts
31-Oct-20 10:58 33.872450 -117.982717 358 91ft 0kts
31-Oct-20 10:59 33.872450 -117.982717 358 91ft 0kts
31-Oct-20 11:00 33.872450 -117.982717 358 91ft 0kts
31-Oct-20 11:01 33.872450 -117.982717 358 91ft 0kts
31-Oct-20 11:02 33.872450 -117.982717 358 91ft 0kts
31-Oct-20 11:03 33.872450 -117.982717 358 91ft 0kts
31-Oct-20 11:04 33.872450 -117.982717 358 91ft 0kts
31-Oct-20 11:06 33.872450 -117.982717 358 91ft 0kts
31-Oct-20 11:07 33.872450 -117.982717 0 91ft 0kts
31-Oct-20 11:08 33.872450 -117.982717 0 91ft 0kts
31-Oct-20 11:09 33.872450 -117.982717 358 91ft 0kts
31-Oct-20 11:10 33.872450 -117.982717 358 91ft 0kts
31-Oct-20 11:11 33.872450 -117.982717 358 91ft 0kts
31-Oct-20 11:12 33.872450 -117.982717 358 91ft 0kts
31-Oct-20 11:13 33.872450 -117.982717 358 91ft 0kts
31-Oct-20 11:14 33.872450 -117.982717 358 91ft 0kts
31-Oct-20 11:15 33.872450 -117.982717 358 91ft 0kts
31-Oct-20 11:16 33.872450 -117.982717 358 91ft 0kts
31-Oct-20 11:17 33.872507 -117.982719 358 91ft 0kts
31-Oct-20 11:18 33.872507 -117.982719 358 91ft 0kts
31-Oct-20 11:19 33.872501 -117.982719 358 91ft 0kts
31-Oct-20 11:20 33.872604 -117.982965 258 92ft 0kts
31-Oct-20 11:21 33.871872 -117.982837 77 89ft 10kts
31-Oct-20 11:22 33.872776 -117.978183 76 102ft 14kts
31-Oct-20 11:23 33.873228 -117.975915 103 104ft 0kts
31-Oct-20 11:24 33.873011 -117.975226 171 106ft 0kts
31-Oct-20 11:25 33.872143 -117.979187 257 99ft 70kts
31-Oct-20 11:26 33.864800 -118.007725 181 1106ft 116kts
31-Oct-20 11:27 33.857160 -117.975774 72 2338ft 138kts
31-Oct-20 11:28 33.865515 -117.927056 70 3137ft 158kts
31-Oct-20 11:29 33.899577 -117.894706 36 3824ft 165kts
31-Oct-20 11:30 33.935861 -117.858896 37 3815ft 170kts
31-Oct-20 11:31 33.976540 -117.840508 350 4126ft 158kts
31-Oct-20 11:32 34.017300 -117.852069 346 4892ft 150kts
31-Oct-20 11:33 34.057552 -117.864015 346 5693ft 149kts
31-Oct-20 11:34 34.094810 -117.862684 24 6929ft 127kts
31-Oct-20 11:35 34.125313 -117.847425 24 8401ft 110kts
31-Oct-20 11:36 34.152140 -117.833965 26 9709ft 109kts
31-Oct-20 11:37 34.184196 -117.840180 345 10715ft 134kts
31-Oct-20 11:38 34.220387 -117.857478 341 11723ft 144kts
31-Oct-20 11:39 34.258761 -117.877016 343 12802ft 153kts
31-Oct-20 11:40 34.297803 -117.896371 342 13726ft 153kts
31-Oct-20 11:41 34.339429 -117.917213 343 14463ft 174kts
31-Oct-20 11:42 34.386813 -117.940936 343 14517ft 192kts
31-Oct-20 11:43 34.436156 -117.965682 342 14456ft 188kts
31-Oct-20 11:44 34.484741 -117.990043 342 14530ft 191kts
31-Oct-20 11:45 34.534247 -118.014922 342 14513ft 192kts
31-Oct-20 11:46 34.583621 -118.039752 342 14505ft 191kts
31-Oct-20 11:47 34.633033 -118.058144 17 14620ft 174kts
31-Oct-20 11:49 34.649516 -118.017002 105 15261ft 152kts
31-Oct-20 11:50 34.644477 -117.964991 89 15530ft 162kts
31-Oct-20 11:51 34.648009 -117.908970 81 15542ft 171kts
31-Oct-20 11:52 34.654788 -117.850420 81 15481ft 174kts
31-Oct-20 11:53 34.660996 -117.792211 81 15484ft 173kts
31-Oct-20 11:54 34.667244 -117.734374 81 15492ft 173kts
31-Oct-20 11:55 34.673442 -117.676506 81 15494ft 173kts
31-Oct-20 11:56 34.679652 -117.618282 81 15501ft 173kts
31-Oct-20 11:57 34.685826 -117.560243 81 15493ft 173kts
31-Oct-20 11:58 34.691961 -117.502140 81 15512ft 174kts
31-Oct-20 11:59 34.698101 -117.443809 81 15505ft 175kts
31-Oct-20 12:00 34.704196 -117.385662 81 15501ft 174kts
31-Oct-20 12:01 34.710299 -117.327065 81 15503ft 174kts
31-Oct-20 12:02 34.716369 -117.268583 82 15505ft 175kts
31-Oct-20 12:03 34.722454 -117.209610 82 15514ft 176kts
31-Oct-20 12:04 34.728508 -117.150707 83 15514ft 176kts
31-Oct-20 12:05 34.734551 -117.091606 83 15513ft 177kts
31-Oct-20 12:06 34.740666 -117.031550 83 15524ft 178kts
31-Oct-20 12:07 34.746718 -116.971737 83 15518ft 178kts
31-Oct-20 12:07 34.751659 -116.922741 83 15520ft 178kts
31-Oct-20 12:08 34.757734 -116.862134 83 15526ft 178kts
31-Oct-20 12:09 34.763764 -116.801749 83 15270ft 176kts
31-Oct-20 12:10 34.769455 -116.744560 83 14735ft 167kts
31-Oct-20 12:11 34.774963 -116.688695 83 14276ft 166kts
31-Oct-20 12:12 34.780439 -116.633119 84 13807ft 165kts
31-Oct-20 12:13 34.785737 -116.578968 84 13528ft 155kts
31-Oct-20 12:14 34.790725 -116.527822 84 13521ft 149kts
31-Oct-20 12:15 34.795553 -116.478042 84 13532ft 148kts
31-Oct-20 12:16 34.806217 -116.426796 74 13572ft 169kts
31-Oct-20 12:17 34.821680 -116.370383 74 13525ft 178kts
31-Oct-20 12:18 34.836898 -116.312529 74 13527ft 180kts
31-Oct-20 12:19 34.852205 -116.254697 74 13525ft 181kts
31-Oct-20 12:20 34.867680 -116.195997 74 13522ft 180kts
31-Oct-20 12:21 34.882309 -116.140385 74 13513ft 172kts
31-Oct-20 12:22 34.897201 -116.083738 75 13526ft 173kts
31-Oct-20 12:23 34.911873 -116.027703 75 13531ft 173kts
31-Oct-20 12:24 34.926552 -115.971606 74 13525ft 173kts
31-Oct-20 12:25 34.941227 -115.915361 75 13540ft 175kts
31-Oct-20 12:26 34.956058 -115.858407 75 13530ft 176kts
31-Oct-20 12:27 34.970777 -115.801724 75 13525ft 174kts
31-Oct-20 12:28 34.985183 -115.746169 75 13537ft 175kts
31-Oct-20 12:29 34.999838 -115.689531 75 13534ft 175kts
31-Oct-20 12:30 35.014478 -115.632829 75 13534ft 174kts
31-Oct-20 12:31 35.029023 -115.576363 75 13538ft 174kts
31-Oct-20 12:32 35.043575 -115.519760 75 13538ft 174kts
31-Oct-20 12:33 35.058140 -115.462963 76 13554ft 178kts
31-Oct-20 12:34 35.073123 -115.404411 76 13572ft 183kts
31-Oct-20 12:35 35.088304 -115.344968 75 13565ft 183kts
31-Oct-20 12:36 35.103491 -115.285355 76 13557ft 183kts
31-Oct-20 12:37 35.118587 -115.225953 76 13559ft 182kts
31-Oct-20 12:38 35.133884 -115.166824 74 13563ft 183kts
31-Oct-20 12:39 35.152157 -115.108964 72 13567ft 183kts
31-Oct-20 12:40 35.165379 -115.066206 73 13570ft 183kts
31-Oct-20 12:41 35.180151 -115.018426 72 13570ft 184kts
31-Oct-20 12:42 35.198274 -114.959801 73 13581ft 184kts
31-Oct-20 12:43 35.208096 -114.928001 73 13579ft 184kts
31-Oct-20 12:44 35.226051 -114.869716 73 13578ft 185kts
31-Oct-20 12:45 35.244143 -114.810875 73 13581ft 185kts
31-Oct-20 12:46 35.262403 -114.751395 73 13575ft 184kts
31-Oct-20 12:47 35.280571 -114.692047 73 13610ft 187kts
31-Oct-20 12:48 35.298993 -114.631716 73 13603ft 190kts
31-Oct-20 12:49 35.317322 -114.571657 73 13585ft 187kts
31-Oct-20 12:50 35.335315 -114.512519 73 13592ft 187kts
31-Oct-20 12:51 35.353135 -114.453891 70 13424ft 180kts
31-Oct-20 12:52 35.370527 -114.396467 70 13410ft 176kts
31-Oct-20 12:53 35.387496 -114.340392 71 13413ft 176kts
31-Oct-20 12:54 35.404530 -114.283950 71 13408ft 176kts
31-Oct-20 12:55 35.421455 -114.227786 70 13409ft 176kts
31-Oct-20 12:56 35.438416 -114.171378 71 13406ft 177kts
31-Oct-20 12:57 35.455529 -114.114382 71 13409ft 177kts
31-Oct-20 12:58 35.472659 -114.057174 71 13423ft 179kts
31-Oct-20 12:59 35.489838 -113.999732 70 13413ft 179kts
31-Oct-20 13:00 35.506946 -113.942379 70 13414ft 179kts
31-Oct-20 13:01 35.524062 -113.884879 73 13524ft 180kts
31-Oct-20 13:02 35.541332 -113.826725 73 13555ft 183kts
31-Oct-20 13:03 35.558960 -113.767374 73 13578ft 186kts
31-Oct-20 13:04 35.576601 -113.707636 73 13555ft 184kts
31-Oct-20 13:05 35.593924 -113.649205 73 13568ft 182kts
31-Oct-20 13:06 35.611315 -113.590496 73 13583ft 182kts
31-Oct-20 13:07 35.628590 -113.532116 73 13591ft 181kts
31-Oct-20 13:08 35.645930 -113.473739 73 13602ft 181kts
31-Oct-20 13:09 35.656870 -113.413672 80 13619ft 181kts
31-Oct-20 13:10 35.670272 -113.354298 75 13579ft 176kts
31-Oct-20 13:11 35.684030 -113.297490 76 13639ft 178kts
31-Oct-20 13:12 35.696733 -113.244078 76 13632ft 178kts
31-Oct-20 13:13 35.699181 -113.233836 76 13630ft 177kts
31-Oct-20 13:14 35.712963 -113.175932 76 13621ft 175kts
31-Oct-20 13:15 35.723831 -113.130064 76 13659ft 177kts
31-Oct-20 13:16 35.734444 -113.085345 75 13507ft 182kts
31-Oct-20 13:17 35.748423 -113.026210 75 13438ft 177kts
31-Oct-20 13:18 35.762124 -112.968144 75 13456ft 176kts
31-Oct-20 13:19 35.775760 -112.910202 75 13460ft 176kts
31-Oct-20 13:20 35.789284 -112.852605 75 13462ft 175kts
31-Oct-20 13:21 35.802832 -112.794773 75 13465ft 175kts
31-Oct-20 13:22 35.816367 -112.736832 75 13469ft 175kts
31-Oct-20 13:23 35.829483 -112.680577 75 13471ft 175kts
31-Oct-20 13:24 35.842823 -112.623217 74 13118ft 165kts
31-Oct-20 13:25 35.855424 -112.568925 74 12613ft 162kts
31-Oct-20 13:26 35.864462 -112.514500 86 12127ft 163kts
31-Oct-20 13:27 35.867377 -112.457503 86 11473ft 173kts
31-Oct-20 13:28 35.870527 -112.397063 86 10546ft 177kts
31-Oct-20 13:29 35.873450 -112.341181 89 9926ft 146kts
31-Oct-20 13:30 35.850634 -112.304351 135 9974ft 134kts
31-Oct-20 13:31 35.833221 -112.265948 71 9350ft 145kts
31-Oct-20 13:32 35.862038 -112.239191 35 8672ft 117kts
31-Oct-20 13:33 35.887100 -112.215113 38 7907ft 108kts
31-Oct-20 13:34 35.909016 -112.192457 39 7428ft 102kts
31-Oct-20 13:35 35.929638 -112.170807 39 6940ft 82kts
31-Oct-20 13:36 35.946284 -112.153359 41 6559ft 64kts
31-Oct-20 13:37 35.951785 -112.146120 131 6579ft 0kts
31-Oct-20 13:38 35.951312 -112.145473 132 6579ft 0kts
31-Oct-20 13:39 35.951312 -112.145473 132 6579ft 0kts

Navigation Log

Ident Type
Flight plan parsing failed, navigation log unavailable